METAR Data
IDs: Format: Raw Decoded Include TAF

Data at: 0238 UTC 25 Feb 2021

MDPP 250200Z 13006KT 9999 FEW018 23/20 Q1019